sensor_id;sensor_type;location;lat;lon;timestamp;pressure;altitude;pressure_sealevel;temperature;humidity
46834;BME280;32572;51.640;-2.664;2022-07-10T00:01:49;102700.55;;;26.35;32.19
46834;BME280;32572;51.640;-2.664;2022-07-10T00:04:17;102700.39;;;26.18;32.42
46834;BME280;32572;51.640;-2.664;2022-07-10T00:06:44;102699.34;;;26.30;32.34
46834;BME280;32572;51.640;-2.664;2022-07-10T00:09:11;102700.85;;;26.68;31.84
46834;BME280;32572;51.640;-2.664;2022-07-10T00:11:38;102704.21;;;26.17;32.49
46834;BME280;32572;51.640;-2.664;2022-07-10T00:14:06;102702.52;;;26.92;32.00
46834;BME280;32572;51.640;-2.664;2022-07-10T00:16:34;102702.31;;;26.36;32.14
46834;BME280;32572;51.640;-2.664;2022-07-10T00:19:01;102699.80;;;26.72;32.04
46834;BME280;32572;51.640;-2.664;2022-07-10T00:21:29;102703.16;;;26.40;32.63
46834;BME280;32572;51.640;-2.664;2022-07-10T00:23:56;102704.01;;;26.48;32.52
46834;BME280;32572;51.640;-2.664;2022-07-10T00:26:23;102704.75;;;25.79;32.97
46834;BME280;32572;51.640;-2.664;2022-07-10T00:28:50;102703.05;;;26.39;32.44
46834;BME280;32572;51.640;-2.664;2022-07-10T00:31:18;102695.28;;;26.16;32.68
46834;BME280;32572;51.640;-2.664;2022-07-10T00:33:45;102690.66;;;26.08;32.65
46834;BME280;32572;51.640;-2.664;2022-07-10T00:36:13;102688.08;;;26.52;32.38
46834;BME280;32572;51.640;-2.664;2022-07-10T00:38:40;102691.64;;;25.89;33.00
46834;BME280;32572;51.640;-2.664;2022-07-10T00:41:08;102693.31;;;26.12;32.99
46834;BME280;32572;51.640;-2.664;2022-07-10T00:43:52;102695.11;;;25.96;32.91
46834;BME280;32572;51.640;-2.664;2022-07-10T00:46:19;102698.72;;;25.68;33.05
46834;BME280;32572;51.640;-2.664;2022-07-10T00:48:46;102696.76;;;25.96;32.75
46834;BME280;32572;51.640;-2.664;2022-07-10T00:51:14;102696.64;;;25.72;33.04
46834;BME280;32572;51.640;-2.664;2022-07-10T00:53:43;102692.57;;;26.55;32.44
46834;BME280;32572;51.640;-2.664;2022-07-10T00:56:12;102694.32;;;25.67;33.09
46834;BME280;32572;51.640;-2.664;2022-07-10T00:58:43;102684.71;;;25.93;32.76
46834;BME280;32572;51.640;-2.664;2022-07-10T01:01:13;102687.52;;;25.70;33.01
46834;BME280;32572;51.640;-2.664;2022-07-10T01:03:41;102679.56;;;25.97;32.57
46834;BME280;32572;51.640;-2.664;2022-07-10T01:06:09;102679.88;;;25.93;32.94
46834;BME280;32572;51.640;-2.664;2022-07-10T01:08:36;102679.94;;;25.19;33.57
46834;BME280;32572;51.640;-2.664;2022-07-10T01:11:04;102678.44;;;25.64;33.31
46834;BME280;32572;51.640;-2.664;2022-07-10T01:13:32;102678.26;;;25.16;33.47
46834;BME280;32572;51.640;-2.664;2022-07-10T01:16:00;102673.49;;;25.31;33.32
46834;BME280;32572;51.640;-2.664;2022-07-10T01:18:28;102670.89;;;24.88;33.76
46834;BME280;32572;51.640;-2.664;2022-07-10T01:20:56;102670.40;;;25.26;33.19
46834;BME280;32572;51.640;-2.664;2022-07-10T01:23:24;102667.39;;;25.94;33.01
46834;BME280;32572;51.640;-2.664;2022-07-10T01:25:51;102668.00;;;25.92;33.06
46834;BME280;32572;51.640;-2.664;2022-07-10T01:28:20;102669.50;;;25.49;33.55
46834;BME280;32572;51.640;-2.664;2022-07-10T01:30:48;102664.12;;;25.19;33.30
46834;BME280;32572;51.640;-2.664;2022-07-10T01:33:16;102662.95;;;25.06;33.98
46834;BME280;32572;51.640;-2.664;2022-07-10T01:35:44;102662.46;;;24.78;34.29
46834;BME280;32572;51.640;-2.664;2022-07-10T01:38:12;102660.29;;;25.59;33.31
46834;BME280;32572;51.640;-2.664;2022-07-10T01:40:39;102660.72;;;25.56;33.30
46834;BME280;32572;51.640;-2.664;2022-07-10T01:43:06;102659.48;;;25.05;33.59
46834;BME280;32572;51.640;-2.664;2022-07-10T01:45:34;102656.21;;;25.03;33.89
46834;BME280;32572;51.640;-2.664;2022-07-10T01:48:01;102656.72;;;24.85;34.07
46834;BME280;32572;51.640;-2.664;2022-07-10T01:50:28;102657.12;;;24.63;34.30
46834;BME280;32572;51.640;-2.664;2022-07-10T01:52:56;102656.68;;;24.76;34.04
46834;BME280;32572;51.640;-2.664;2022-07-10T01:55:24;102658.56;;;24.81;34.04
46834;BME280;32572;51.640;-2.664;2022-07-10T01:57:51;102658.95;;;25.79;32.81
46834;BME280;32572;51.640;-2.664;2022-07-10T02:00:18;102657.45;;;24.90;33.79
46834;BME280;32572;51.640;-2.664;2022-07-10T02:02:46;102657.63;;;25.02;33.66
46834;BME280;32572;51.640;-2.664;2022-07-10T02:05:14;102656.08;;;24.78;33.97
46834;BME280;32572;51.640;-2.664;2022-07-10T02:07:42;102657.98;;;24.47;34.26
46834;BME280;32572;51.640;-2.664;2022-07-10T02:10:10;102658.56;;;24.39;34.44
46834;BME280;32572;51.640;-2.664;2022-07-10T02:12:38;102659.41;;;24.63;34.35
46834;BME280;32572;51.640;-2.664;2022-07-10T02:15:07;102653.09;;;24.34;34.36
46834;BME280;32572;51.640;-2.664;2022-07-10T02:17:34;102648.13;;;25.38;33.08
46834;BME280;32572;51.640;-2.664;2022-07-10T02:20:03;102644.41;;;24.89;33.63
46834;BME280;32572;51.640;-2.664;2022-07-10T02:22:30;102644.67;;;24.79;34.10
46834;BME280;32572;51.640;-2.664;2022-07-10T02:24:58;102644.73;;;24.18;34.75
46834;BME280;32572;51.640;-2.664;2022-07-10T02:27:26;102643.39;;;24.30;34.27
46834;BME280;32572;51.640;-2.664;2022-07-10T02:29:54;102640.85;;;24.21;34.77
46834;BME280;32572;51.640;-2.664;2022-07-10T02:32:21;102637.50;;;23.88;34.69
46834;BME280;32572;51.640;-2.664;2022-07-10T02:34:49;102637.08;;;24.18;34.64
46834;BME280;32572;51.640;-2.664;2022-07-10T02:37:17;102635.12;;;25.06;33.23
46834;BME280;32572;51.640;-2.664;2022-07-10T02:39:45;102635.93;;;24.03;34.45
46834;BME280;32572;51.640;-2.664;2022-07-10T02:42:12;102633.79;;;23.43;35.14
46834;BME280;32572;51.640;-2.664;2022-07-10T02:44:40;102632.04;;;23.67;35.16
46834;BME280;32572;51.640;-2.664;2022-07-10T02:47:07;102626.33;;;23.89;34.91
46834;BME280;32572;51.640;-2.664;2022-07-10T02:49:35;102622.73;;;23.41;35.42
46834;BME280;32572;51.640;-2.664;2022-07-10T02:52:03;102622.68;;;23.81;34.58
46834;BME280;32572;51.640;-2.664;2022-07-10T02:54:30;102618.58;;;23.82;35.17
46834;BME280;32572;51.640;-2.664;2022-07-10T02:56:58;102612.97;;;24.61;33.81
46834;BME280;32572;51.640;-2.664;2022-07-10T02:59:26;102617.19;;;24.74;33.92
46834;BME280;32572;51.640;-2.664;2022-07-10T03:01:54;102614.15;;;24.07;34.37
46834;BME280;32572;51.640;-2.664;2022-07-10T03:04:21;102607.43;;;23.42;34.90
46834;BME280;32572;51.640;-2.664;2022-07-10T03:06:48;102612.71;;;23.38;35.46
46834;BME280;32572;51.640;-2.664;2022-07-10T03:09:16;102612.75;;;23.18;35.53
46834;BME280;32572;51.640;-2.664;2022-07-10T03:11:43;102610.84;;;23.42;35.46
46834;BME280;32572;51.640;-2.664;2022-07-10T03:14:11;102608.82;;;23.35;35.55
46834;BME280;32572;51.640;-2.664;2022-07-10T03:16:38;102606.47;;;24.05;34.36
46834;BME280;32572;51.640;-2.664;2022-07-10T03:19:05;102601.29;;;24.72;33.75
46834;BME280;32572;51.640;-2.664;2022-07-10T03:21:33;102599.40;;;23.79;34.82
46834;BME280;32572;51.640;-2.664;2022-07-10T03:24:01;102601.28;;;22.85;35.41
46834;BME280;32572;51.640;-2.664;2022-07-10T03:26:28;102597.35;;;24.11;34.37
46834;BME280;32572;51.640;-2.664;2022-07-10T03:28:56;102598.52;;;23.23;35.18
46834;BME280;32572;51.640;-2.664;2022-07-10T03:31:23;102595.08;;;23.25;35.42
46834;BME280;32572;51.640;-2.664;2022-07-10T03:33:51;102589.26;;;23.56;34.94
46834;BME280;32572;51.640;-2.664;2022-07-10T03:36:19;102586.25;;;23.51;34.98
46834;BME280;32572;51.640;-2.664;2022-07-10T03:38:47;102586.35;;;23.74;34.45
46834;BME280;32572;51.640;-2.664;2022-07-10T03:41:14;102586.73;;;24.15;34.47
46834;BME280;32572;51.640;-2.664;2022-07-10T03:43:42;102588.02;;;23.49;35.07
46834;BME280;32572;51.640;-2.664;2022-07-10T03:46:10;102583.72;;;23.41;34.73
46834;BME280;32572;51.640;-2.664;2022-07-10T03:48:38;102588.52;;;22.94;35.40
46834;BME280;32572;51.640;-2.664;2022-07-10T03:51:05;102589.32;;;23.04;35.23
46834;BME280;32572;51.640;-2.664;2022-07-10T03:53:33;102589.16;;;23.67;34.96
46834;BME280;32572;51.640;-2.664;2022-07-10T03:56:01;102590.30;;;22.76;35.54
46834;BME280;32572;51.640;-2.664;2022-07-10T03:58:28;102591.33;;;23.10;35.35
46834;BME280;32572;51.640;-2.664;2022-07-10T04:00:56;102590.87;;;23.41;35.20
46834;BME280;32572;51.640;-2.664;2022-07-10T04:03:24;102587.79;;;23.85;34.24
46834;BME280;32572;51.640;-2.664;2022-07-10T04:05:52;102591.04;;;22.88;35.24
46834;BME280;32572;51.640;-2.664;2022-07-10T04:08:19;102593.21;;;23.19;35.17
46834;BME280;32572;51.640;-2.664;2022-07-10T04:10:47;102598.53;;;22.70;35.78
46834;BME280;32572;51.640;-2.664;2022-07-10T04:13:14;102602.55;;;22.87;35.39
46834;BME280;32572;51.640;-2.664;2022-07-10T04:15:42;102600.71;;;23.24;34.96
46834;BME280;32572;51.640;-2.664;2022-07-10T04:18:09;102601.63;;;23.70;34.61
46834;BME280;32572;51.640;-2.664;2022-07-10T04:20:37;102596.74;;;23.46;35.34
46834;BME280;32572;51.640;-2.664;2022-07-10T04:23:04;102591.57;;;23.16;34.93
46834;BME280;32572;51.640;-2.664;2022-07-10T04:25:31;102591.39;;;22.51;35.81
46834;BME280;32572;51.640;-2.664;2022-07-10T04:27:58;102590.61;;;23.55;34.65
46834;BME280;32572;51.640;-2.664;2022-07-10T04:30:26;102590.21;;;23.42;34.63
46834;BME280;32572;51.640;-2.664;2022-07-10T04:32:54;102591.01;;;23.63;34.57
46834;BME280;32572;51.640;-2.664;2022-07-10T04:35:22;102592.73;;;22.39;35.81
46834;BME280;32572;51.640;-2.664;2022-07-10T04:37:49;102593.02;;;22.46;35.70
46834;BME280;32572;51.640;-2.664;2022-07-10T04:40:16;102593.04;;;23.37;34.99
46834;BME280;32572;51.640;-2.664;2022-07-10T04:42:44;102593.79;;;22.69;36.10
46834;BME280;32572;51.640;-2.664;2022-07-10T04:45:12;102594.56;;;22.61;35.41
46834;BME280;32572;51.640;-2.664;2022-07-10T04:47:39;102597.06;;;22.69;35.67
46834;BME280;32572;51.640;-2.664;2022-07-10T04:50:07;102595.60;;;22.91;35.85
46834;BME280;32572;51.640;-2.664;2022-07-10T04:52:35;102592.65;;;22.49;35.78
46834;BME280;32572;51.640;-2.664;2022-07-10T04:55:02;102587.24;;;23.77;34.34
46834;BME280;32572;51.640;-2.664;2022-07-10T04:57:30;102585.78;;;22.70;35.36
46834;BME280;32572;51.640;-2.664;2022-07-10T04:59:58;102585.09;;;23.29;34.89
46834;BME280;32572;51.640;-2.664;2022-07-10T05:02:26;102586.55;;;22.83;35.48
46834;BME280;32572;51.640;-2.664;2022-07-10T05:04:54;102584.29;;;22.53;35.86
46834;BME280;32572;51.640;-2.664;2022-07-10T05:07:21;102584.03;;;22.80;35.57
46834;BME280;32572;51.640;-2.664;2022-07-10T05:09:49;102584.65;;;22.45;36.38
46834;BME280;32572;51.640;-2.664;2022-07-10T05:12:17;102588.80;;;23.00;35.71
46834;BME280;32572;51.640;-2.664;2022-07-10T05:14:45;102592.19;;;22.64;36.13
46834;BME280;32572;51.640;-2.664;2022-07-10T05:17:12;102591.10;;;23.04;34.89
46834;BME280;32572;51.640;-2.664;2022-07-10T05:19:39;102593.11;;;22.86;35.48
46834;BME280;32572;51.640;-2.664;2022-07-10T05:22:07;102592.61;;;23.30;34.83
46834;BME280;32572;51.640;-2.664;2022-07-10T05:24:35;102595.73;;;22.50;35.78
46834;BME280;32572;51.640;-2.664;2022-07-10T05:27:03;102597.98;;;22.38;36.04
46834;BME280;32572;51.640;-2.664;2022-07-10T05:29:31;102594.51;;;23.80;34.57
46834;BME280;32572;51.640;-2.664;2022-07-10T05:31:58;102598.48;;;22.19;36.39
46834;BME280;32572;51.640;-2.664;2022-07-10T05:34:26;102595.94;;;22.41;35.73
46834;BME280;32572;51.640;-2.664;2022-07-10T05:36:54;102591.57;;;22.58;35.86
46834;BME280;32572;51.640;-2.664;2022-07-10T05:39:21;102590.24;;;23.37;34.80
46834;BME280;32572;51.640;-2.664;2022-07-10T05:41:48;102591.24;;;23.05;35.26
46834;BME280;32572;51.640;-2.664;2022-07-10T05:44:15;102595.06;;;23.00;35.10
46834;BME280;32572;51.640;-2.664;2022-07-10T05:46:42;102596.94;;;23.06;35.63
46834;BME280;32572;51.640;-2.664;2022-07-10T05:49:09;102599.16;;;23.79;34.37
46834;BME280;32572;51.640;-2.664;2022-07-10T05:51:37;102597.47;;;23.27;35.32
46834;BME280;32572;51.640;-2.664;2022-07-10T05:54:04;102599.56;;;23.09;35.33
46834;BME280;32572;51.640;-2.664;2022-07-10T05:56:32;102599.56;;;23.28;35.27
46834;BME280;32572;51.640;-2.664;2022-07-10T05:58:59;102599.00;;;22.77;35.64
46834;BME280;32572;51.640;-2.664;2022-07-10T06:01:26;102599.99;;;24.00;34.53
46834;BME280;32572;51.640;-2.664;2022-07-10T06:03:54;102598.69;;;23.13;35.51
46834;BME280;32572;51.640;-2.664;2022-07-10T06:06:22;102594.08;;;23.40;35.15
46834;BME280;32572;51.640;-2.664;2022-07-10T06:08:50;102594.38;;;23.41;35.48
46834;BME280;32572;51.640;-2.664;2022-07-10T06:11:18;102593.80;;;23.15;35.64
46834;BME280;32572;51.640;-2.664;2022-07-10T06:13:46;102590.69;;;23.03;35.80
46834;BME280;32572;51.640;-2.664;2022-07-10T06:16:13;102591.32;;;23.17;35.73
46834;BME280;32572;51.640;-2.664;2022-07-10T06:18:41;102594.53;;;23.17;36.03
46834;BME280;32572;51.640;-2.664;2022-07-10T06:21:08;102593.67;;;22.64;36.12
46834;BME280;32572;51.640;-2.664;2022-07-10T06:23:35;102592.54;;;23.86;35.41
46834;BME280;32572;51.640;-2.664;2022-07-10T06:26:02;102589.95;;;23.91;34.95
46834;BME280;32572;51.640;-2.664;2022-07-10T06:28:30;102591.62;;;23.87;35.11
46834;BME280;32572;51.640;-2.664;2022-07-10T06:30:58;102601.18;;;23.71;35.28
46834;BME280;32572;51.640;-2.664;2022-07-10T06:33:25;102606.77;;;23.48;35.37
46834;BME280;32572;51.640;-2.664;2022-07-10T06:35:53;102607.99;;;23.72;35.71
46834;BME280;32572;51.640;-2.664;2022-07-10T06:38:20;102609.96;;;23.30;35.69
46834;BME280;32572;51.640;-2.664;2022-07-10T06:40:48;102609.75;;;23.37;35.63
46834;BME280;32572;51.640;-2.664;2022-07-10T06:43:17;102606.99;;;23.51;35.48
46834;BME280;32572;51.640;-2.664;2022-07-10T06:45:45;102600.51;;;23.71;35.31
46834;BME280;32572;51.640;-2.664;2022-07-10T06:48:13;102598.26;;;24.35;34.66
46834;BME280;32572;51.640;-2.664;2022-07-10T06:50:41;102594.75;;;24.43;34.53
46834;BME280;32572;51.640;-2.664;2022-07-10T06:53:09;102590.75;;;24.59;34.50
46834;BME280;32572;51.640;-2.664;2022-07-10T06:55:38;102596.84;;;24.52;34.61
46834;BME280;32572;51.640;-2.664;2022-07-10T06:58:06;102594.09;;;24.68;34.47
46834;BME280;32572;51.640;-2.664;2022-07-10T07:00:33;102594.11;;;25.17;34.29
46834;BME280;32572;51.640;-2.664;2022-07-10T07:03:00;102593.97;;;24.70;34.45
46834;BME280;32572;51.640;-2.664;2022-07-10T07:05:28;102592.85;;;24.93;34.04
46834;BME280;32572;51.640;-2.664;2022-07-10T07:07:55;102593.05;;;25.27;33.96
46834;BME280;32572;51.640;-2.664;2022-07-10T07:10:23;102592.57;;;25.91;33.31
46834;BME280;32572;51.640;-2.664;2022-07-10T07:12:50;102594.58;;;25.85;33.26
46834;BME280;32572;51.640;-2.664;2022-07-10T07:15:18;102594.25;;;25.72;33.38
46834;BME280;32572;51.640;-2.664;2022-07-10T07:17:46;102591.18;;;25.95;33.38
46834;BME280;32572;51.640;-2.664;2022-07-10T07:20:13;102589.84;;;25.92;33.20
46834;BME280;32572;51.640;-2.664;2022-07-10T07:22:41;102590.29;;;26.02;33.22
46834;BME280;32572;51.640;-2.664;2022-07-10T07:25:09;102589.34;;;26.25;33.26
46834;BME280;32572;51.640;-2.664;2022-07-10T07:27:38;102589.35;;;26.27;33.27
46834;BME280;32572;51.640;-2.664;2022-07-10T07:30:08;102588.65;;;26.01;33.03
46834;BME280;32572;51.640;-2.664;2022-07-10T07:32:36;102584.32;;;26.18;33.29
46834;BME280;32572;51.640;-2.664;2022-07-10T07:35:05;102582.33;;;26.03;33.44
46834;BME280;32572;51.640;-2.664;2022-07-10T07:37:37;102579.28;;;25.99;33.47
46834;BME280;32572;51.640;-2.664;2022-07-10T07:40:06;102578.49;;;26.20;33.53
46834;BME280;32572;51.640;-2.664;2022-07-10T07:42:34;102575.65;;;26.07;33.41
46834;BME280;32572;51.640;-2.664;2022-07-10T07:45:03;102577.91;;;26.10;33.42
46834;BME280;32572;51.640;-2.664;2022-07-10T07:47:30;102575.64;;;26.47;33.29
46834;BME280;32572;51.640;-2.664;2022-07-10T07:50:02;102572.40;;;26.07;33.21
46834;BME280;32572;51.640;-2.664;2022-07-10T07:52:30;102575.04;;;26.48;33.11
46834;BME280;32572;51.640;-2.664;2022-07-10T07:54:58;102574.88;;;26.36;32.95
46834;BME280;32572;51.640;-2.664;2022-07-10T07:57:25;102572.25;;;26.75;32.86
46834;BME280;32572;51.640;-2.664;2022-07-10T07:59:52;102567.34;;;26.87;32.69
46834;BME280;32572;51.640;-2.664;2022-07-10T08:02:20;102564.83;;;27.04;32.69
46834;BME280;32572;51.640;-2.664;2022-07-10T08:04:47;102566.32;;;26.98;32.62
46834;BME280;32572;51.640;-2.664;2022-07-10T08:07:15;102564.56;;;27.01;32.80
46834;BME280;32572;51.640;-2.664;2022-07-10T08:09:42;102560.26;;;27.32;32.40
46834;BME280;32572;51.640;-2.664;2022-07-10T08:12:09;102558.80;;;27.22;32.25
46834;BME280;32572;51.640;-2.664;2022-07-10T08:14:36;102556.27;;;27.31;32.28
46834;BME280;32572;51.640;-2.664;2022-07-10T08:17:05;102555.11;;;27.19;32.10
46834;BME280;32572;51.640;-2.664;2022-07-10T08:19:32;102551.43;;;27.31;32.05
46834;BME280;32572;51.640;-2.664;2022-07-10T08:21:59;102555.65;;;27.54;32.06
46834;BME280;32572;51.640;-2.664;2022-07-10T08:24:26;102556.97;;;27.70;31.91
46834;BME280;32572;51.640;-2.664;2022-07-10T08:26:53;102555.78;;;28.18;31.39
46834;BME280;32572;51.640;-2.664;2022-07-10T08:29:22;102555.58;;;28.15;31.16
46834;BME280;32572;51.640;-2.664;2022-07-10T08:31:49;102556.48;;;28.31;31.03
46834;BME280;32572;51.640;-2.664;2022-07-10T08:34:18;102554.54;;;28.31;30.66
46834;BME280;32572;51.640;-2.664;2022-07-10T08:36:45;102550.87;;;28.45;30.54
46834;BME280;32572;51.640;-2.664;2022-07-10T08:39:13;102544.60;;;28.52;30.48
46834;BME280;32572;51.640;-2.664;2022-07-10T08:41:43;102541.94;;;28.61;30.52
46834;BME280;32572;51.640;-2.664;2022-07-10T08:44:10;102543.20;;;28.45;30.45
46834;BME280;32572;51.640;-2.664;2022-07-10T08:46:38;102544.26;;;28.96;30.19
46834;BME280;32572;51.640;-2.664;2022-07-10T08:49:09;102539.06;;;29.06;30.06
46834;BME280;32572;51.640;-2.664;2022-07-10T08:51:40;102540.20;;;29.03;29.85
46834;BME280;32572;51.640;-2.664;2022-07-10T08:54:08;102539.38;;;29.42;29.74
46834;BME280;32572;51.640;-2.664;2022-07-10T08:56:36;102541.75;;;29.55;29.52
46834;BME280;32572;51.640;-2.664;2022-07-10T08:59:04;102537.00;;;29.27;29.47
46834;BME280;32572;51.640;-2.664;2022-07-10T09:01:32;102534.19;;;29.34;29.59
46834;BME280;32572;51.640;-2.664;2022-07-10T09:04:00;102534.29;;;28.98;29.32
46834;BME280;32572;51.640;-2.664;2022-07-10T09:06:28;102536.00;;;29.75;28.94
46834;BME280;32572;51.640;-2.664;2022-07-10T09:09:01;102530.30;;;30.02;28.72
46834;BME280;32572;51.640;-2.664;2022-07-10T09:11:30;102525.97;;;30.09;28.64
46834;BME280;32572;51.640;-2.664;2022-07-10T09:14:00;102523.86;;;29.99;28.63
46834;BME280;32572;51.640;-2.664;2022-07-10T09:16:29;102523.07;;;30.43;28.49
46834;BME280;32572;51.640;-2.664;2022-07-10T09:19:14;102520.85;;;30.39;28.35
46834;BME280;32572;51.640;-2.664;2022-07-10T09:21:41;102520.64;;;30.76;28.31
46834;BME280;32572;51.640;-2.664;2022-07-10T09:24:09;102519.38;;;30.68;28.09
46834;BME280;32572;51.640;-2.664;2022-07-10T09:26:38;102514.21;;;30.83;28.07
46834;BME280;32572;51.640;-2.664;2022-07-10T09:29:06;102512.00;;;31.26;27.97
46834;BME280;32572;51.640;-2.664;2022-07-10T09:31:49;102509.26;;;31.37;27.86
46834;BME280;32572;51.640;-2.664;2022-07-10T09:34:16;102508.15;;;31.28;27.73
46834;BME280;32572;51.640;-2.664;2022-07-10T09:36:45;102505.93;;;31.22;27.59
46834;BME280;32572;51.640;-2.664;2022-07-10T09:39:12;102500.01;;;31.39;27.48
46834;BME280;32572;51.640;-2.664;2022-07-10T09:41:40;102501.91;;;31.05;27.38
46834;BME280;32572;51.640;-2.664;2022-07-10T09:44:08;102499.61;;;31.79;27.17
46834;BME280;32572;51.640;-2.664;2022-07-10T09:46:37;102497.74;;;32.07;26.94
46834;BME280;32572;51.640;-2.664;2022-07-10T09:49:08;102497.25;;;32.04;26.70
46834;BME280;32572;51.640;-2.664;2022-07-10T09:51:38;102495.44;;;32.24;26.52
46834;BME280;32572;51.640;-2.664;2022-07-10T09:54:07;102492.01;;;32.77;26.30
46834;BME280;32572;51.640;-2.664;2022-07-10T09:56:43;102492.46;;;32.49;26.12
46834;BME280;32572;51.640;-2.664;2022-07-10T09:59:13;102494.16;;;32.69;25.98
46834;BME280;32572;51.640;-2.664;2022-07-10T10:01:45;102493.61;;;32.87;25.83
46834;BME280;32572;51.640;-2.664;2022-07-10T10:04:13;102488.29;;;33.18;25.57
46834;BME280;32572;51.640;-2.664;2022-07-10T10:06:41;102488.85;;;33.23;25.30
46834;BME280;32572;51.640;-2.664;2022-07-10T10:09:17;102488.44;;;33.66;25.22
46834;BME280;32572;51.640;-2.664;2022-07-10T10:11:47;102487.64;;;33.51;25.18
46834;BME280;32572;51.640;-2.664;2022-07-10T10:14:19;102481.62;;;33.70;24.99
46834;BME280;32572;51.640;-2.664;2022-07-10T10:16:48;102475.37;;;33.62;24.79
46834;BME280;32572;51.640;-2.664;2022-07-10T10:19:18;102480.57;;;33.84;24.61
46834;BME280;32572;51.640;-2.664;2022-07-10T10:21:47;102477.94;;;34.00;24.42
46834;BME280;32572;51.640;-2.664;2022-07-10T10:24:16;102478.26;;;34.16;24.30
46834;BME280;32572;51.640;-2.664;2022-07-10T10:26:45;102475.13;;;33.86;24.13
46834;BME280;32572;51.640;-2.664;2022-07-10T10:29:13;102471.78;;;34.29;23.94
46834;BME280;32572;51.640;-2.664;2022-07-10T10:31:42;102467.51;;;34.65;23.77
46834;BME280;32572;51.640;-2.664;2022-07-10T10:34:10;102463.11;;;34.83;23.63
46834;BME280;32572;51.640;-2.664;2022-07-10T10:36:46;102461.63;;;34.85;23.46
46834;BME280;32572;51.640;-2.664;2022-07-10T10:39:16;102465.42;;;34.77;23.33
46834;BME280;32572;51.640;-2.664;2022-07-10T10:41:49;102462.60;;;34.96;23.18
46834;BME280;32572;51.640;-2.664;2022-07-10T10:44:20;102458.47;;;35.11;23.02
46834;BME280;32572;51.640;-2.664;2022-07-10T10:46:56;102458.58;;;35.25;22.89
46834;BME280;32572;51.640;-2.664;2022-07-10T10:49:25;102454.60;;;35.03;22.88
46834;BME280;32572;51.640;-2.664;2022-07-10T10:51:58;102451.08;;;35.09;22.81
46834;BME280;32572;51.640;-2.664;2022-07-10T10:54:26;102448.79;;;35.38;22.62
46834;BME280;32572;51.640;-2.664;2022-07-10T10:57:37;102450.39;;;36.60;22.44
46834;BME280;32572;51.640;-2.664;2022-07-10T11:00:07;102449.75;;;35.86;22.25
46834;BME280;32572;51.640;-2.664;2022-07-10T11:02:36;102449.16;;;35.78;22.20
46834;BME280;32572;51.640;-2.664;2022-07-10T11:05:41;102441.91;;;36.47;22.02
46834;BME280;32572;51.640;-2.664;2022-07-10T11:08:10;102439.92;;;36.45;21.88
46834;BME280;32572;51.640;-2.664;2022-07-10T11:10:39;102439.47;;;36.58;21.64
46834;BME280;32572;51.640;-2.664;2022-07-10T11:13:08;102444.72;;;37.33;21.06
46834;BME280;32572;51.640;-2.664;2022-07-10T11:15:38;102436.02;;;37.25;20.89
46834;BME280;32572;51.640;-2.664;2022-07-10T11:18:06;102431.35;;;36.98;21.10
46834;BME280;32572;51.640;-2.664;2022-07-10T11:20:36;102424.86;;;37.29;20.86
46834;BME280;32572;51.640;-2.664;2022-07-10T11:23:35;102425.26;;;37.25;20.71
46834;BME280;32572;51.640;-2.664;2022-07-10T11:26:11;102427.83;;;37.26;20.42
46834;BME280;32572;51.640;-2.664;2022-07-10T11:28:48;102422.79;;;38.07;20.19
46834;BME280;32572;51.640;-2.664;2022-07-10T11:31:17;102423.01;;;39.05;19.49
46834;BME280;32572;51.640;-2.664;2022-07-10T11:33:46;102416.45;;;39.92;18.77
46834;BME280;32572;51.640;-2.664;2022-07-10T11:36:15;102409.52;;;40.07;18.65
46834;BME280;32572;51.640;-2.664;2022-07-10T11:38:43;102406.94;;;39.65;18.57
46834;BME280;32572;51.640;-2.664;2022-07-10T11:41:19;102404.79;;;39.56;18.59
46834;BME280;32572;51.640;-2.664;2022-07-10T11:43:50;102402.64;;;39.50;18.72
46834;BME280;32572;51.640;-2.664;2022-07-10T11:46:19;102400.87;;;39.40;18.61
46834;BME280;32572;51.640;-2.664;2022-07-10T11:48:47;102397.40;;;39.38;18.75
46834;BME280;32572;51.640;-2.664;2022-07-10T11:51:17;102395.01;;;39.31;18.91
46834;BME280;32572;51.640;-2.664;2022-07-10T11:53:54;102396.72;;;39.44;18.79
46834;BME280;32572;51.640;-2.664;2022-07-10T11:56:21;102392.53;;;38.91;19.14
46834;BME280;32572;51.640;-2.664;2022-07-10T11:58:58;102394.30;;;39.81;18.61
46834;BME280;32572;51.640;-2.664;2022-07-10T12:01:27;102402.22;;;41.78;17.28
46834;BME280;32572;51.640;-2.664;2022-07-10T12:03:58;102393.87;;;40.56;17.92
46834;BME280;32572;51.640;-2.664;2022-07-10T12:06:26;102385.64;;;40.43;17.93
46834;BME280;32572;51.640;-2.664;2022-07-10T12:08:54;102383.77;;;40.47;17.78
46834;BME280;32572;51.640;-2.664;2022-07-10T12:11:23;102375.33;;;40.03;18.05
46834;BME280;32572;51.640;-2.664;2022-07-10T12:13:51;102372.07;;;39.23;18.49
46834;BME280;32572;51.640;-2.664;2022-07-10T12:16:20;102371.86;;;38.70;18.86
46834;BME280;32572;51.640;-2.664;2022-07-10T12:18:48;102368.58;;;38.45;18.93
46834;BME280;32572;51.640;-2.664;2022-07-10T12:21:16;102365.85;;;38.58;18.93
46834;BME280;32572;51.640;-2.664;2022-07-10T12:23:44;102359.21;;;38.31;19.09
46834;BME280;32572;51.640;-2.664;2022-07-10T12:26:12;102361.27;;;39.55;18.37
46834;BME280;32572;51.640;-2.664;2022-07-10T12:28:56;102361.63;;;38.77;18.76
46834;BME280;32572;51.640;-2.664;2022-07-10T12:31:25;102363.18;;;38.17;19.22
46834;BME280;32572;51.640;-2.664;2022-07-10T12:33:56;102360.81;;;38.30;19.19
46834;BME280;32572;51.640;-2.664;2022-07-10T12:36:24;102356.28;;;38.46;19.08
46834;BME280;32572;51.640;-2.664;2022-07-10T12:38:54;102355.78;;;38.21;19.27
46834;BME280;32572;51.640;-2.664;2022-07-10T12:41:23;102354.47;;;38.27;19.11
46834;BME280;32572;51.640;-2.664;2022-07-10T12:43:51;102357.71;;;37.72;19.43
46834;BME280;32572;51.640;-2.664;2022-07-10T12:46:20;102353.70;;;37.37;19.65
46834;BME280;32572;51.640;-2.664;2022-07-10T12:49:05;102359.83;;;37.27;19.77